Time,TemperatureF,DewpointF,PressureIn,WindDirection,WindDirectionDegrees,WindSpeedMPH,WindSpeedGustMPH,Humidity,HourlyPrecipIn,Conditions,Clouds,dailyrainin,SoftwareType,DateUTC
2013-08-21 00:00:00,67.1,62.8,30.01,SSE,158,0.0,0.0,86,0.00,,,-99.99,Weather View 32 v60,2013-08-21 04:00:00,
2013-08-21 00:03:00,67.1,62.8,30.01,SSE,158,0.0,0.0,86,0.00,,,-99.99,Weather View 32 v60,2013-08-21 04:03:00,
2013-08-21 00:05:00,67.0,63.0,30.02,SSE,158,0.0,0.0,87,0.00,,,-99.99,Weather View 32 v60,2013-08-21 04:05:00,
2013-08-21 00:10:00,66.8,62.8,30.02,SSE,158,0.0,0.0,87,0.00,,,-99.99,Weather View 32 v60,2013-08-21 04:10:00,
2013-08-21 00:20:00,66.7,62.7,30.02,SSE,158,0.0,0.0,87,0.00,,,-99.99,Weather View 32 v60,2013-08-21 04:20:00,
2013-08-21 00:30:00,66.5,62.8,30.02,South,180,0.0,0.0,88,0.00,,,-99.99,Weather View 32 v60,2013-08-21 04:30:00,
2013-08-21 00:40:00,66.2,62.5,30.02,SSE,158,0.0,0.0,88,0.00,,,-99.99,Weather View 32 v60,2013-08-21 04:40:00,
2013-08-21 00:50:00,66.0,62.3,30.02,SSE,158,0.0,0.0,88,0.00,,,-99.99,Weather View 32 v60,2013-08-21 04:50:00,
2013-08-21 01:00:00,65.9,62.2,30.02,SSE,158,0.0,0.0,88,0.00,,,-99.99,Weather View 32 v60,2013-08-21 05:00:00,
2013-08-21 01:05:00,65.8,62.1,30.02,SSE,158,0.0,0.0,88,0.00,,,-99.99,Weather View 32 v60,2013-08-21 05:05:00,
2013-08-21 01:15:00,65.6,61.9,30.02,SSE,158,0.0,0.0,88,0.00,,,-99.99,Weather View 32 v60,2013-08-21 05:15:00,
2013-08-21 01:20:00,65.6,61.9,30.02,SSE,158,0.0,0.0,88,0.00,,,-99.99,Weather View 32 v60,2013-08-21 05:20:00,
2013-08-21 01:30:00,65.4,62.1,30.02,SSE,158,0.0,0.0,89,0.00,,,-99.99,Weather View 32 v60,2013-08-21 05:30:00,
2013-08-21 01:40:00,65.3,62.0,30.02,South,180,0.0,0.0,89,0.00,,,-99.99,Weather View 32 v60,2013-08-21 05:40:00,
2013-08-21 01:45:00,65.2,61.9,30.02,South,180,0.0,0.0,89,0.00,,,-99.99,Weather View 32 v60,2013-08-21 05:45:00,
2013-08-21 01:55:00,65.0,61.7,30.03,SSE,158,0.0,0.0,89,0.00,,,-99.99,Weather View 32 v60,2013-08-21 05:55:00,
2013-08-21 02:04:00,65.0,61.7,30.03,South,180,0.0,0.0,89,0.00,,,-99.99,Weather View 32 v60,2013-08-21 06:04:00,
2013-08-21 02:10:00,64.8,61.8,30.03,SSE,158,0.0,0.0,90,0.00,,,-99.99,Weather View 32 v60,2013-08-21 06:10:00,
2013-08-21 02:20:00,64.7,61.7,30.03,SSE,158,0.0,0.0,90,0.00,,,-99.99,Weather View 32 v60,2013-08-21 06:20:00,
2013-08-21 02:30:00,64.5,61.5,30.03,SSE,158,0.0,0.0,90,0.00,,,-99.99,Weather View 32 v60,2013-08-21 06:30:00,
2013-08-21 02:40:00,64.4,61.4,30.03,South,180,0.0,0.0,90,0.00,,,-99.99,Weather View 32 v60,2013-08-21 06:40:00,
2013-08-21 02:45:00,64.3,61.6,30.03,South,180,0.0,0.0,91,0.00,,,-99.99,Weather View 32 v60,2013-08-21 06:45:00,
2013-08-21 02:55:00,64.2,61.5,30.03,SSE,158,0.0,1.0,91,0.00,,,-99.99,Weather View 32 v60,2013-08-21 06:55:00,
2013-08-21 03:00:00,64.1,61.4,30.03,South,180,0.0,1.0,91,0.00,,,-99.99,Weather View 32 v60,2013-08-21 07:00:00,
2013-08-21 03:10:00,64.1,61.4,30.03,South,180,0.0,1.0,91,0.00,,,-99.99,Weather View 32 v60,2013-08-21 07:10:00,
2013-08-21 03:20:00,64.0,61.3,30.04,South,180,0.0,1.0,91,0.00,,,-99.99,Weather View 32 v60,2013-08-21 07:20:00,
2013-08-21 03:30:00,63.8,61.1,30.04,SSE,158,0.0,1.0,91,0.00,,,-99.99,Weather View 32 v60,2013-08-21 07:30:00,
2013-08-21 03:35:00,63.8,61.1,30.04,SSE,158,0.0,1.0,91,0.00,,,-99.99,Weather View 32 v60,2013-08-21 07:35:00,
2013-08-21 03:45:00,63.6,60.9,30.04,SSE,158,0.0,1.0,91,0.00,,,-99.99,Weather View 32 v60,2013-08-21 07:45:00,
2013-08-21 03:50:00,63.5,61.1,30.04,SSE,158,0.0,0.0,92,0.00,,,-99.99,Weather View 32 v60,2013-08-21 07:50:00,
2013-08-21 04:00:00,63.3,60.6,30.04,SSE,158,0.0,0.0,91,0.00,,,-99.99,Weather View 32 v60,2013-08-21 08:00:00,
2013-08-21 04:05:00,63.2,60.8,30.04,South,180,0.0,0.0,92,0.00,,,-99.99,Weather View 32 v60,2013-08-21 08:05:00,
2013-08-21 04:15:00,63.0,60.6,30.04,South,180,0.0,0.0,92,0.00,,,-99.99,Weather View 32 v60,2013-08-21 08:15:00,
2013-08-21 04:25:00,62.9,60.5,30.04,SSE,158,0.0,0.0,92,0.00,,,-99.99,Weather View 32 v60,2013-08-21 08:25:00,
2013-08-21 04:30:00,62.8,60.4,30.04,SSE,158,0.0,0.0,92,0.00,,,-99.99,Weather View 32 v60,2013-08-21 08:30:00,
2013-08-21 04:40:00,62.7,60.3,30.04,SSE,158,0.0,0.0,92,0.00,,,-99.99,Weather View 32 v60,2013-08-21 08:40:00,
2013-08-21 04:50:00,62.5,60.1,30.05,SSE,158,0.0,0.0,92,0.00,,,-99.99,Weather View 32 v60,2013-08-21 08:50:00,
2013-08-21 05:00:00,62.4,60.3,30.05,SSE,158,0.0,0.0,93,0.00,,,-99.99,Weather View 32 v60,2013-08-21 09:00:00,
2013-08-21 05:05:00,62.3,60.2,30.05,SSE,158,0.0,0.0,93,0.00,,,-99.99,Weather View 32 v60,2013-08-21 09:05:00,
2013-08-21 05:15:00,62.2,60.1,30.05,SSE,158,0.0,0.0,93,0.00,,,-99.99,Weather View 32 v60,2013-08-21 09:15:00,
2013-08-21 05:25:00,62.1,60.0,30.05,SSE,158,0.0,0.0,93,0.00,,,-99.99,Weather View 32 v60,2013-08-21 09:25:00,
2013-08-21 05:35:00,62.0,59.9,30.05,SSE,158,0.0,0.0,93,0.00,,,-99.99,Weather View 32 v60,2013-08-21 09:35:00,
2013-08-21 05:45:00,61.9,60.1,30.05,SSE,158,0.0,0.0,94,0.00,,,-99.99,Weather View 32 v60,2013-08-21 09:45:00,
2013-08-21 05:55:00,61.8,59.7,30.05,SSE,158,0.0,0.0,93,0.00,,,-99.99,Weather View 32 v60,2013-08-21 09:55:00,
2013-08-21 06:00:00,61.7,59.6,30.06,SSE,158,0.0,0.0,93,0.00,,,-99.99,Weather View 32 v60,2013-08-21 10:00:00,
2013-08-21 06:06:00,61.7,59.6,30.06,SSE,158,0.0,0.0,93,0.00,,,-99.99,Weather View 32 v60,2013-08-21 10:06:00,
2013-08-21 06:15:00,61.5,59.5,30.06,SSE,158,0.0,0.0,93,0.00,,,-99.99,Weather View 32 v60,2013-08-21 10:15:00,
2013-08-21 06:25:00,61.5,59.8,30.07,SSE,158,0.0,0.0,94,0.00,,,-99.99,Weather View 32 v60,2013-08-21 10:25:00,
2013-08-21 06:35:00,61.4,59.7,30.07,South,180,0.0,0.0,94,0.00,,,-99.99,Weather View 32 v60,2013-08-21 10:35:00,
2013-08-21 06:40:00,61.4,59.7,30.07,South,180,0.0,0.0,94,0.00,,,-99.99,Weather View 32 v60,2013-08-21 10:40:00,
2013-08-21 06:50:00,61.4,59.7,30.07,SSE,158,0.0,0.0,94,0.00,,,-99.99,Weather View 32 v60,2013-08-21 10:50:00,
2013-08-21 07:00:00,61.5,60.0,30.07,SSE,158,0.0,0.0,95,0.00,,,-99.99,Weather View 32 v60,2013-08-21 11:00:00,
2013-08-21 07:07:00,61.6,60.1,30.07,SSE,158,0.0,0.0,95,0.00,,,-99.99,Weather View 32 v60,2013-08-21 11:07:00,
2013-08-21 07:15:00,61.8,60.3,30.08,SSE,158,0.0,0.0,95,0.00,,,-99.99,Weather View 32 v60,2013-08-21 11:15:00,
2013-08-21 07:25:00,62.0,60.5,30.08,South,180,0.0,0.0,95,0.00,,,-99.99,Weather View 32 v60,2013-08-21 11:25:00,
2013-08-21 07:35:00,62.2,60.7,30.08,SSE,158,0.0,2.0,95,0.00,,,-99.99,Weather View 32 v60,2013-08-21 11:35:00,
2013-08-21 07:40:00,62.4,60.9,30.08,SSE,158,0.0,2.0,95,0.00,,,-99.99,Weather View 32 v60,2013-08-21 11:40:00,
2013-08-21 07:50:00,62.8,61.6,30.08,SSE,158,0.0,2.0,96,0.00,,,-99.99,Weather View 32 v60,2013-08-21 11:50:00,
2013-08-21 08:00:00,63.3,62.1,30.08,NE,45,0.0,2.0,96,0.00,,,-99.99,Weather View 32 v60,2013-08-21 12:00:00,
2013-08-21 08:07:00,63.5,62.3,30.08,SE,135,0.0,2.0,96,0.00,,,-99.99,Weather View 32 v60,2013-08-21 12:07:00,
2013-08-21 08:15:00,63.9,62.7,30.08,East,90,1.0,3.0,96,0.00,,,-99.99,Weather View 32 v60,2013-08-21 12:15:00,
2013-08-21 08:25:00,64.6,63.1,30.08,East,90,1.0,3.0,95,0.00,,,-99.99,Weather View 32 v60,2013-08-21 12:25:00,
2013-08-21 08:30:00,64.8,63.3,30.08,SSE,158,1.0,3.0,95,0.00,,,-99.99,Weather View 32 v60,2013-08-21 12:30:00,
2013-08-21 08:40:00,65.5,64.0,30.08,South,180,0.0,3.0,95,0.00,,,-99.99,Weather View 32 v60,2013-08-21 12:40:00,
2013-08-21 08:50:00,66.2,64.4,30.08,South,180,1.0,3.0,94,0.00,,,-99.99,Weather View 32 v60,2013-08-21 12:50:00,
2013-08-21 08:55:00,66.5,64.7,30.08,SSE,158,0.0,3.0,94,0.00,,,-99.99,Weather View 32 v60,2013-08-21 12:55:00,
2013-08-21 09:05:00,67.4,65.3,30.08,South,180,1.0,3.0,93,0.00,,,-99.99,Weather View 32 v60,2013-08-21 13:05:00,
2013-08-21 09:15:00,68.4,65.7,30.08,SSE,158,0.0,3.0,91,0.00,,,-99.99,Weather View 32 v60,2013-08-21 13:15:00,
2013-08-21 09:25:00,69.0,65.9,30.08,SSE,158,1.0,3.0,90,0.00,,,-99.99,Weather View 32 v60,2013-08-21 13:25:00,
2013-08-21 09:35:00,69.9,66.2,30.08,SSE,158,0.0,3.0,88,0.00,,,-99.99,Weather View 32 v60,2013-08-21 13:35:00,
2013-08-21 09:45:00,70.5,66.4,30.08,SSE,158,1.0,3.0,87,0.00,,,-99.99,Weather View 32 v60,2013-08-21 13:45:00,
2013-08-21 09:55:00,71.0,66.6,30.08,SSE,158,1.0,3.0,86,0.00,,,-99.99,Weather View 32 v60,2013-08-21 13:55:00,
2013-08-21 10:00:00,71.4,66.6,30.08,SE,135,1.0,3.0,85,0.00,,,-99.99,Weather View 32 v60,2013-08-21 14:00:00,
2013-08-21 10:08:00,71.6,66.5,30.07,SSE,158,1.0,3.0,84,0.00,,,-99.99,Weather View 32 v60,2013-08-21 14:08:00,
2013-08-21 10:15:00,72.3,66.1,30.07,SSE,158,1.0,3.0,81,0.00,,,-99.99,Weather View 32 v60,2013-08-21 14:15:00,
2013-08-21 10:20:00,72.7,66.1,30.07,SSE,158,1.0,3.0,80,0.00,,,-99.99,Weather View 32 v60,2013-08-21 14:20:00,
2013-08-21 10:30:00,73.4,66.1,30.07,South,180,1.0,3.0,78,0.00,,,-99.99,Weather View 32 v60,2013-08-21 14:30:00,
2013-08-21 10:40:00,74.2,66.5,30.07,South,180,2.0,3.0,77,0.00,,,-99.99,Weather View 32 v60,2013-08-21 14:40:00,
2013-08-21 10:50:00,75.0,66.5,30.06,South,180,1.0,4.0,75,0.00,,,-99.99,Weather View 32 v60,2013-08-21 14:50:00,
2013-08-21 11:00:00,76.0,67.1,30.06,ESE,113,2.0,4.0,74,0.00,,,-99.99,Weather View 32 v60,2013-08-21 15:00:00,
2013-08-21 11:09:00,76.7,67.0,30.06,South,180,1.0,4.0,72,0.00,,,-99.99,Weather View 32 v60,2013-08-21 15:09:00,
2013-08-21 11:15:00,78.0,67.8,30.06,South,180,2.0,4.0,71,0.00,,,-99.99,Weather View 32 v60,2013-08-21 15:15:00,
2013-08-21 11:25:00,79.3,67.3,30.06,South,180,2.0,4.0,67,0.00,,,-99.99,Weather View 32 v60,2013-08-21 15:25:00,
2013-08-21 11:35:00,80.3,67.9,30.06,South,180,2.0,4.0,66,0.00,,,-99.99,Weather View 32 v60,2013-08-21 15:35:00,
2013-08-21 11:45:00,81.3,67.9,30.06,South,180,2.0,4.0,64,0.00,,,-99.99,Weather View 32 v60,2013-08-21 15:45:00,
2013-08-21 11:55:00,82.3,68.4,30.06,SSE,158,3.0,7.0,63,0.00,,,-99.99,Weather View 32 v60,2013-08-21 15:55:00,
2013-08-21 12:05:00,82.9,67.5,30.05,South,180,3.0,7.0,60,0.00,,,-99.99,Weather View 32 v60,2013-08-21 16:05:00,
2013-08-21 12:10:00,83.2,67.8,30.05,South,180,3.0,7.0,60,0.00,,,-99.99,Weather View 32 v60,2013-08-21 16:10:00,
2013-08-21 12:20:00,83.8,67.9,30.05,NE,45,3.0,7.0,59,0.00,,,-99.99,Weather View 32 v60,2013-08-21 16:20:00,
2013-08-21 12:30:00,84.4,67.4,30.04,SE,135,1.0,7.0,57,0.00,,,-99.99,Weather View 32 v60,2013-08-21 16:30:00,
2013-08-21 12:40:00,84.9,68.4,30.04,NNE,23,3.0,7.0,58,0.00,,,-99.99,Weather View 32 v60,2013-08-21 16:40:00,
2013-08-21 12:50:00,85.2,67.7,30.04,SSE,158,1.0,7.0,56,0.00,,,-99.99,Weather View 32 v60,2013-08-21 16:50:00,
2013-08-21 13:00:00,85.5,66.9,30.03,East,90,2.0,6.0,54,0.00,,,-99.99,Weather View 32 v60,2013-08-21 17:00:00,
2013-08-21 13:05:00,85.8,68.7,30.03,SE,135,1.0,6.0,57,0.00,,,-99.99,Weather View 32 v60,2013-08-21 17:05:00,
2013-08-21 13:10:00,85.8,67.7,30.03,South,180,3.0,6.0,55,0.00,,,-99.99,Weather View 32 v60,2013-08-21 17:10:00,
2013-08-21 13:20:00,85.9,66.7,30.03,South,180,3.0,7.0,53,0.00,,,-99.99,Weather View 32 v60,2013-08-21 17:20:00,
2013-08-21 13:25:00,85.8,66.6,30.02,SSE,158,4.0,9.0,53,0.00,,,-99.99,Weather View 32 v60,2013-08-21 17:25:00,
2013-08-21 13:30:00,85.8,66.6,30.02,SSE,158,1.0,9.0,53,0.00,,,-99.99,Weather View 32 v60,2013-08-21 17:30:00,
2013-08-21 13:40:00,86.1,67.4,30.02,South,180,3.0,9.0,54,0.00,,,-99.99,Weather View 32 v60,2013-08-21 17:40:00,
2013-08-21 13:50:00,86.0,67.3,30.02,South,180,1.0,9.0,54,0.00,,,-99.99,Weather View 32 v60,2013-08-21 17:50:00,
2013-08-21 14:00:00,86.1,67.4,30.01,SE,135,2.0,9.0,54,0.00,,,-99.99,Weather View 32 v60,2013-08-21 18:00:00,
2013-08-21 14:10:00,86.3,67.1,30.01,SSE,158,3.0,9.0,53,0.00,,,-99.99,Weather View 32 v60,2013-08-21 18:10:00,
2013-08-21 14:15:00,86.3,66.5,30.01,East,90,3.0,9.0,52,0.00,,,-99.99,Weather View 32 v60,2013-08-21 18:15:00,
2013-08-21 14:25:00,86.2,65.9,30.00,SSE,158,1.0,8.0,51,0.00,,,-99.99,Weather View 32 v60,2013-08-21 18:25:00,
2013-08-21 14:35:00,86.0,65.1,30.00,South,180,4.0,8.0,50,0.00,,,-99.99,Weather View 32 v60,2013-08-21 18:35:00,
2013-08-21 14:45:00,86.1,67.4,29.99,South,180,1.0,8.0,54,0.00,,,-99.99,Weather View 32 v60,2013-08-21 18:45:00,
2013-08-21 14:55:00,86.2,66.4,30.00,South,180,2.0,8.0,52,0.00,,,-99.99,Weather View 32 v60,2013-08-21 18:55:00,
2013-08-21 15:00:00,86.4,67.7,29.99,South,180,1.0,8.0,54,0.00,,,-99.99,Weather View 32 v60,2013-08-21 19:00:00,
2013-08-21 15:05:00,86.3,68.7,29.99,SSE,158,1.0,8.0,56,0.00,,,-99.99,Weather View 32 v60,2013-08-21 19:05:00,
2013-08-21 15:11:00,86.3,68.2,29.99,SSE,158,1.0,8.0,55,0.00,,,-99.99,Weather View 32 v60,2013-08-21 19:11:00,
2013-08-21 15:20:00,86.0,67.3,29.99,SSE,158,1.0,9.0,54,0.00,,,-99.99,Weather View 32 v60,2013-08-21 19:20:00,
2013-08-21 15:30:00,85.8,67.2,29.98,SSE,158,1.0,9.0,54,0.00,,,-99.99,Weather View 32 v60,2013-08-21 19:30:00,
2013-08-21 15:40:00,85.5,67.9,29.98,SSE,158,2.0,9.0,56,0.00,,,-99.99,Weather View 32 v60,2013-08-21 19:40:00,
2013-08-21 15:45:00,85.3,67.2,29.98,South,180,1.0,9.0,55,0.00,,,-99.99,Weather View 32 v60,2013-08-21 19:45:00,
2013-08-21 15:55:00,84.8,66.2,29.98,ESE,113,2.0,9.0,54,0.00,,,-99.99,Weather View 32 v60,2013-08-21 19:55:00,
2013-08-21 16:00:00,84.7,66.7,29.97,SE,135,3.0,9.0,55,0.00,,,-99.99,Weather View 32 v60,2013-08-21 20:00:00,
2013-08-21 16:05:00,84.5,66.0,29.97,East,90,1.0,9.0,54,0.00,,,-99.99,Weather View 32 v60,2013-08-21 20:05:00,
2013-08-21 16:12:00,84.4,65.9,29.97,SE,135,1.0,9.0,54,0.00,,,-99.99,Weather View 32 v60,2013-08-21 20:12:00,
2013-08-21 16:20:00,84.1,66.1,29.97,NE,45,3.0,7.0,55,0.00,,,-99.99,Weather View 32 v60,2013-08-21 20:20:00,
2013-08-21 16:25:00,84.0,66.0,29.97,SE,135,2.0,7.0,55,0.00,,,-99.99,Weather View 32 v60,2013-08-21 20:25:00,
2013-08-21 16:35:00,83.7,65.2,29.96,South,180,1.0,7.0,54,0.00,,,-99.99,Weather View 32 v60,2013-08-21 20:35:00,
2013-08-21 16:45:00,83.5,65.0,29.96,South,180,1.0,7.0,54,0.00,,,-99.99,Weather View 32 v60,2013-08-21 20:45:00,
2013-08-21 16:50:00,83.5,65.6,29.96,South,180,2.0,7.0,55,0.00,,,-99.99,Weather View 32 v60,2013-08-21 20:50:00,
2013-08-21 17:00:00,83.4,66.0,29.96,SSE,158,3.0,9.0,56,0.00,,,-99.99,Weather View 32 v60,2013-08-21 21:00:00,
2013-08-21 17:10:00,83.3,65.4,29.95,SSE,158,1.0,9.0,55,0.00,,,-99.99,Weather View 32 v60,2013-08-21 21:10:00,
2013-08-21 17:15:00,83.2,65.8,29.96,NE,45,2.0,9.0,56,0.00,,,-99.99,Weather View 32 v60,2013-08-21 21:15:00,
2013-08-21 17:25:00,82.9,65.0,29.96,SSE,158,2.0,9.0,55,0.00,,,-99.99,Weather View 32 v60,2013-08-21 21:25:00,
2013-08-21 17:30:00,82.8,65.4,29.95,SE,135,2.0,9.0,56,0.00,,,-99.99,Weather View 32 v60,2013-08-21 21:30:00,
2013-08-21 17:40:00,82.5,65.7,29.95,South,180,1.0,9.0,57,0.00,,,-99.99,Weather View 32 v60,2013-08-21 21:40:00,
2013-08-21 17:45:00,82.4,65.6,29.95,SSE,158,2.0,9.0,57,0.00,,,-99.99,Weather View 32 v60,2013-08-21 21:45:00,
2013-08-21 17:50:00,82.2,64.9,29.95,SSE,158,1.0,9.0,56,0.00,,,-99.99,Weather View 32 v60,2013-08-21 21:50:00,
2013-08-21 18:00:00,81.9,65.1,29.95,SE,135,1.0,7.0,57,0.00,,,-99.99,Weather View 32 v60,2013-08-21 22:00:00,
2013-08-21 18:10:00,81.5,65.7,29.95,SSE,158,1.0,7.0,59,0.00,,,-99.99,Weather View 32 v60,2013-08-21 22:10:00,
2013-08-21 18:15:00,81.3,65.1,29.95,ESE,113,1.0,7.0,58,0.00,,,-99.99,Weather View 32 v60,2013-08-21 22:15:00,
2013-08-21 18:25:00,80.9,65.7,29.95,SE,135,1.0,6.0,60,0.00,,,-99.99,Weather View 32 v60,2013-08-21 22:25:00,
2013-08-21 18:35:00,80.5,65.8,29.94,South,180,1.0,6.0,61,0.00,,,-99.99,Weather View 32 v60,2013-08-21 22:35:00,
2013-08-21 18:45:00,80.1,65.9,29.94,South,180,3.0,6.0,62,0.00,,,-99.99,Weather View 32 v60,2013-08-21 22:45:00,
2013-08-21 18:55:00,79.8,66.5,29.94,South,180,1.0,5.0,64,0.00,,,-99.99,Weather View 32 v60,2013-08-21 22:55:00,
2013-08-21 19:05:00,79.2,66.8,29.94,South,180,1.0,5.0,66,0.00,,,-99.99,Weather View 32 v60,2013-08-21 23:05:00,
2013-08-21 19:10:00,79.0,67.1,29.94,SE,135,1.0,5.0,67,0.00,,,-99.99,Weather View 32 v60,2013-08-21 23:10:00,
2013-08-21 19:20:00,78.4,66.9,29.94,SSE,158,2.0,5.0,68,0.00,,,-99.99,Weather View 32 v60,2013-08-21 23:20:00,
2013-08-21 19:25:00,78.1,67.1,29.94,SSE,158,1.0,5.0,69,0.00,,,-99.99,Weather View 32 v60,2013-08-21 23:25:00,
2013-08-21 19:35:00,77.6,67.0,29.94,SE,135,1.0,5.0,70,0.00,,,-99.99,Weather View 32 v60,2013-08-21 23:35:00,
2013-08-21 19:45:00,77.0,67.2,29.94,South,180,1.0,4.0,72,0.00,,,-99.99,Weather View 32 v60,2013-08-21 23:45:00,
2013-08-21 19:55:00,76.5,67.2,29.94,South,180,2.0,4.0,73,0.00,,,-99.99,Weather View 32 v60,2013-08-21 23:55:00,
2013-08-21 20:05:00,76.0,67.1,29.95,SSE,158,1.0,3.0,74,0.00,,,-99.99,Weather View 32 v60,2013-08-22 00:05:00,
2013-08-21 20:10:00,75.7,66.8,29.95,South,180,0.0,3.0,74,0.00,,,-99.99,Weather View 32 v60,2013-08-22 00:10:00,
2013-08-21 20:20:00,75.2,66.7,29.95,South,180,1.0,3.0,75,0.00,,,-99.99,Weather View 32 v60,2013-08-22 00:20:00,
2013-08-21 20:30:00,74.8,66.3,29.96,East,90,1.0,4.0,75,0.00,,,-99.99,Weather View 32 v60,2013-08-22 00:30:00,
2013-08-21 20:35:00,74.6,66.5,29.95,South,180,1.0,4.0,76,0.00,,,-99.99,Weather View 32 v60,2013-08-22 00:35:00,
2013-08-21 20:45:00,74.2,66.1,29.96,SE,135,1.0,4.0,76,0.00,,,-99.99,Weather View 32 v60,2013-08-22 00:45:00,
2013-08-21 20:55:00,73.8,66.1,29.96,South,180,1.0,4.0,77,0.00,,,-99.99,Weather View 32 v60,2013-08-22 00:55:00,
2013-08-21 21:05:00,73.4,65.7,29.96,South,180,0.0,4.0,77,0.00,,,-99.99,Weather View 32 v60,2013-08-22 01:05:00,
2013-08-21 21:14:00,73.2,65.5,29.96,SE,135,2.0,4.0,77,0.00,,,-99.99,Weather View 32 v60,2013-08-22 01:14:00,
2013-08-21 21:20:00,72.9,65.6,29.96,SE,135,0.0,4.0,78,0.00,,,-99.99,Weather View 32 v60,2013-08-22 01:20:00,
2013-08-21 21:30:00,72.6,65.3,29.96,East,90,1.0,4.0,78,0.00,,,-99.99,Weather View 32 v60,2013-08-22 01:30:00,
2013-08-21 21:40:00,72.3,65.0,29.96,South,180,1.0,4.0,78,0.00,,,-99.99,Weather View 32 v60,2013-08-22 01:40:00,
2013-08-21 21:45:00,72.2,64.9,29.96,South,180,1.0,3.0,78,0.00,,,-99.99,Weather View 32 v60,2013-08-22 01:45:00,
2013-08-21 21:55:00,72.0,64.7,29.96,South,180,0.0,3.0,78,0.00,,,-99.99,Weather View 32 v60,2013-08-22 01:55:00,
2013-08-21 22:05:00,71.7,64.4,29.95,South,180,1.0,3.0,78,0.00,,,-99.99,Weather View 32 v60,2013-08-22 02:05:00,
2013-08-21 22:15:00,71.5,64.6,29.95,SSE,158,1.0,3.0,79,0.00,,,-99.99,Weather View 32 v60,2013-08-22 02:15:00,
2013-08-21 22:25:00,71.3,64.4,29.95,South,180,1.0,3.0,79,0.00,,,-99.99,Weather View 32 v60,2013-08-22 02:25:00,
2013-08-21 22:35:00,71.0,64.5,29.95,South,180,1.0,3.0,80,0.00,,,-99.99,Weather View 32 v60,2013-08-22 02:35:00,
2013-08-21 22:45:00,70.8,64.3,29.95,SSE,158,1.0,3.0,80,0.00,,,-99.99,Weather View 32 v60,2013-08-22 02:45:00,
2013-08-21 22:55:00,70.6,64.5,29.95,SSE,158,1.0,4.0,81,0.00,,,-99.99,Weather View 32 v60,2013-08-22 02:55:00,
2013-08-21 23:05:00,70.3,64.2,29.95,South,180,1.0,4.0,81,0.00,,,-99.99,Weather View 32 v60,2013-08-22 03:05:00,
2013-08-21 23:10:00,70.3,64.2,29.95,South,180,2.0,4.0,81,0.00,,,-99.99,Weather View 32 v60,2013-08-22 03:10:00,
2013-08-21 23:15:00,70.2,64.1,29.95,SSE,158,1.0,4.0,81,0.00,,,-99.99,Weather View 32 v60,2013-08-22 03:15:00,
2013-08-21 23:25:00,70.0,64.2,29.94,South,180,1.0,4.0,82,0.00,,,-99.99,Weather View 32 v60,2013-08-22 03:25:00,
2013-08-21 23:30:00,69.9,64.1,29.94,South,180,1.0,4.0,82,0.00,,,-99.99,Weather View 32 v60,2013-08-22 03:30:00,
2013-08-21 23:40:00,69.7,63.9,29.94,South,180,1.0,4.0,82,0.00,,,-99.99,Weather View 32 v60,2013-08-22 03:40:00,
2013-08-21 23:45:00,69.6,63.8,29.94,South,180,2.0,4.0,82,0.00,,,-99.99,Weather View 32 v60,2013-08-22 03:45:00,
2013-08-21 23:55:00,69.4,64.0,29.94,South,180,1.0,4.0,83,0.00,,,-99.99,Weather View 32 v60,2013-08-22 03:55:00,